createdAt,value
2019-05-07T00:01:59.642Z,1.43
2019-05-07T00:04:27.758Z,1.63
2019-05-07T00:06:55.801Z,1.70
2019-05-07T00:09:23.961Z,1.70
2019-05-07T00:11:53.351Z,1.50
2019-05-07T00:14:23.074Z,1.90
2019-05-07T00:16:53.391Z,1.70
2019-05-07T00:19:23.054Z,1.43
2019-05-07T00:21:52.821Z,1.40
2019-05-07T00:24:22.362Z,1.67
2019-05-07T00:26:53.042Z,1.37
2019-05-07T00:29:22.398Z,1.73
2019-05-07T00:31:52.064Z,1.50
2019-05-07T00:34:22.243Z,1.70
2019-05-07T00:37:02.863Z,1.77
2019-05-07T00:39:59.527Z,1.50
2019-05-07T00:42:56.018Z,1.50
2019-05-07T00:45:38.016Z,1.40
2019-05-07T00:48:06.035Z,1.40
2019-05-07T00:50:36.095Z,1.40
2019-05-07T00:53:04.104Z,1.50
2019-05-07T00:55:33.445Z,1.50
2019-05-07T00:58:02.346Z,1.50
2019-05-07T01:00:33.071Z,1.50
2019-05-07T01:03:03.059Z,1.60
2019-05-07T01:05:32.611Z,1.63
2019-05-07T01:08:02.567Z,1.60
2019-05-07T01:10:32.897Z,1.60
2019-05-07T01:13:02.757Z,1.40
2019-05-07T01:15:34.260Z,1.60
2019-05-07T01:18:02.873Z,1.70
2019-05-07T01:20:32.937Z,1.80
2019-05-07T01:23:02.587Z,1.50
2019-05-07T01:25:32.905Z,1.40
2019-05-07T01:28:02.613Z,1.63
2019-05-07T01:30:32.482Z,1.73
2019-05-07T01:33:12.250Z,1.40
2019-05-07T01:35:58.541Z,1.40
2019-05-07T01:38:26.606Z,1.60
2019-05-07T01:40:54.732Z,1.63
2019-05-07T01:43:22.951Z,1.50
2019-05-07T01:45:52.963Z,1.40
2019-05-07T01:48:22.997Z,1.67
2019-05-07T01:50:52.496Z,1.40
2019-05-07T01:53:22.777Z,1.30
2019-05-07T01:55:52.360Z,1.70
2019-05-07T01:58:22.155Z,1.20
2019-05-07T02:00:50.410Z,1.30
2019-05-07T02:03:24.784Z,1.23
2019-05-07T02:06:07.383Z,1.37
2019-05-07T02:08:44.405Z,1.70
2019-05-07T02:11:15.830Z,1.50
2019-05-07T02:13:44.167Z,1.37
2019-05-07T02:16:12.651Z,1.40
2019-05-07T02:18:42.451Z,1.60
2019-05-07T02:21:13.034Z,1.23
2019-05-07T02:23:42.564Z,1.33
2019-05-07T02:26:13.110Z,1.10
2019-05-07T02:28:42.653Z,1.37
2019-05-07T02:31:15.003Z,1.27
2019-05-07T02:33:43.435Z,1.40
2019-05-07T02:36:14.312Z,1.40
2019-05-07T02:38:58.545Z,1.50
2019-05-07T02:41:32.828Z,1.40
2019-05-07T02:44:03.946Z,1.40
2019-05-07T02:46:54.354Z,1.10
2019-05-07T02:49:34.267Z,1.43
2019-05-07T02:52:24.526Z,1.37
2019-05-07T02:55:16.269Z,1.20
2019-05-07T02:57:44.286Z,1.20
2019-05-07T03:00:14.712Z,1.33
2019-05-07T03:02:43.771Z,1.10
2019-05-07T03:05:13.658Z,1.40
2019-05-07T03:07:42.925Z,1.30
2019-05-07T03:10:13.808Z,1.10
2019-05-07T03:12:43.008Z,1.50
2019-05-07T03:15:13.230Z,1.30
2019-05-07T03:17:42.941Z,1.40
2019-05-07T03:20:15.467Z,1.10
2019-05-07T03:22:43.563Z,1.20
2019-05-07T03:25:16.971Z,1.33
2019-05-07T03:27:45.029Z,1.40
2019-05-07T03:30:36.429Z,1.20
2019-05-07T03:33:16.203Z,1.37
2019-05-07T03:35:47.415Z,1.03
2019-05-07T03:38:15.938Z,1.50
2019-05-07T03:40:44.907Z,1.30
2019-05-07T03:43:14.295Z,1.30
2019-05-07T03:46:04.244Z,1.50
2019-05-07T03:48:33.483Z,1.23
2019-05-07T03:51:03.775Z,1.20
2019-05-07T03:53:33.855Z,1.47
2019-05-07T03:56:04.022Z,1.60
2019-05-07T03:58:33.958Z,1.30
2019-05-07T04:01:04.257Z,1.30
2019-05-07T04:03:34.135Z,1.50
2019-05-07T04:06:03.942Z,1.37
2019-05-07T04:08:33.478Z,1.33
2019-05-07T04:11:03.592Z,1.43
2019-05-07T04:13:33.882Z,1.20
2019-05-07T04:16:04.134Z,1.40
2019-05-07T04:18:33.136Z,1.40
2019-05-07T04:21:03.667Z,1.30
2019-05-07T04:23:34.108Z,1.30
2019-05-07T04:26:35.869Z,1.43
2019-05-07T04:29:07.061Z,1.37
2019-05-07T04:31:39.223Z,1.20
2019-05-07T04:34:24.399Z,1.30
2019-05-07T04:36:53.435Z,1.47
2019-05-07T04:39:23.244Z,1.40
2019-05-07T04:41:53.031Z,1.20
2019-05-07T04:44:23.480Z,1.33
2019-05-07T04:46:54.706Z,1.70
2019-05-07T04:49:23.905Z,1.37
2019-05-07T04:52:04.219Z,1.30
2019-05-07T04:54:32.894Z,1.30
2019-05-07T04:57:03.615Z,1.37
2019-05-07T04:59:32.965Z,1.60
2019-05-07T05:04:44.993Z,1.40
2019-05-07T05:07:13.479Z,1.50
2019-05-07T05:09:42.637Z,1.43
2019-05-07T05:12:13.014Z,1.33
2019-05-07T05:14:43.529Z,1.40
2019-05-07T05:17:13.006Z,1.50
2019-05-07T05:19:44.841Z,1.50
2019-05-07T05:22:31.834Z,1.47
2019-05-07T05:25:15.996Z,1.50
2019-05-07T05:27:44.099Z,1.47
2019-05-07T05:30:17.063Z,1.60
2019-05-07T05:32:45.109Z,1.40
2019-05-07T05:35:13.236Z,1.20
2019-05-07T05:37:43.110Z,1.40
2019-05-07T05:40:12.375Z,1.40
2019-05-07T05:42:46.126Z,1.70
2019-05-07T05:45:34.274Z,1.60
2019-05-07T05:48:07.395Z,1.60
2019-05-07T05:50:42.274Z,1.53
2019-05-07T05:53:22.447Z,1.40
2019-05-07T05:55:52.792Z,1.33
2019-05-07T05:58:32.565Z,1.30
2019-05-07T06:01:32.052Z,1.43
2019-05-07T06:04:12.429Z,1.63
2019-05-07T06:06:53.975Z,1.57
2019-05-07T06:09:26.758Z,1.70
2019-05-07T06:12:23.763Z,1.50
2019-05-07T06:15:01.756Z,1.40
2019-05-07T06:17:49.366Z,1.60
2019-05-07T06:20:34.268Z,1.70
2019-05-07T06:23:32.989Z,1.47
2019-05-07T06:26:04.839Z,1.80
2019-05-07T06:28:33.035Z,1.70
2019-05-07T06:31:02.176Z,1.80
2019-05-07T06:33:32.297Z,1.63
2019-05-07T06:36:02.840Z,1.77
2019-05-07T06:38:35.813Z,1.80
2019-05-07T06:41:22.662Z,1.80
2019-05-07T06:43:55.579Z,1.73
2019-05-07T06:46:23.661Z,1.90
2019-05-07T06:48:52.721Z,1.70
2019-05-07T06:51:22.076Z,1.87
2019-05-07T06:53:51.892Z,2.00
2019-05-07T06:56:20.270Z,2.07
2019-05-07T06:59:02.252Z,2.00
2019-05-07T07:02:05.770Z,1.90
2019-05-07T07:04:52.473Z,2.07
2019-05-07T07:07:34.174Z,2.03
2019-05-07T07:10:16.486Z,1.90
2019-05-07T07:12:44.486Z,1.90
2019-05-07T07:15:12.881Z,1.93
2019-05-07T07:17:41.881Z,2.37
2019-05-07T07:20:12.545Z,1.87
2019-05-07T07:22:42.456Z,1.80
2019-05-07T07:25:11.902Z,2.30
2019-05-07T07:27:39.993Z,2.10
2019-05-07T07:30:27.876Z,2.10
2019-05-07T07:32:57.533Z,1.83
2019-05-07T07:35:25.627Z,2.30
2019-05-07T07:37:53.692Z,2.27
2019-05-07T07:40:43.121Z,1.67
2019-05-07T07:43:12.901Z,1.93
2019-05-07T07:45:43.168Z,1.90
2019-05-07T07:48:13.171Z,1.70
2019-05-07T07:50:42.114Z,2.00
2019-05-07T07:53:12.751Z,1.63
2019-05-07T07:55:46.050Z,2.20
2019-05-07T07:58:22.371Z,2.00
2019-05-07T08:01:13.900Z,2.23
2019-05-07T08:03:42.221Z,2.10
2019-05-07T08:06:11.958Z,2.20
2019-05-07T08:08:42.325Z,2.30
2019-05-07T08:11:10.095Z,2.47
2019-05-07T08:13:38.141Z,2.60
2019-05-07T08:16:06.297Z,2.43
2019-05-07T08:18:34.405Z,2.33
2019-05-07T08:21:02.717Z,2.50
2019-05-07T08:23:31.981Z,2.40
2019-05-07T08:26:02.535Z,2.20
2019-05-07T08:28:31.957Z,2.60
2019-05-07T08:31:12.530Z,2.47
2019-05-07T08:33:51.717Z,2.43
2019-05-07T08:36:19.384Z,2.40
2019-05-07T08:38:54.964Z,2.20
2019-05-07T08:41:25.214Z,2.07
2019-05-07T08:44:10.773Z,2.40
2019-05-07T08:46:51.981Z,2.40
2019-05-07T08:49:33.479Z,2.13
2019-05-07T08:52:00.083Z,2.47
2019-05-07T08:54:32.151Z,2.23
2019-05-07T08:57:01.937Z,2.73
2019-05-07T08:59:32.007Z,2.50
2019-05-07T09:02:02.875Z,2.70
2019-05-07T09:04:32.711Z,2.63
2019-05-07T09:07:02.676Z,2.50
2019-05-07T09:09:32.334Z,2.50
2019-05-07T09:12:03.109Z,2.07
2019-05-07T09:14:31.983Z,2.50
2019-05-07T09:17:02.478Z,2.40
2019-05-07T09:19:32.279Z,2.40
2019-05-07T09:22:02.427Z,2.67
2019-05-07T09:24:32.984Z,2.30
2019-05-07T09:27:07.182Z,2.30
2019-05-07T09:29:55.034Z,2.33
2019-05-07T09:32:34.836Z,2.50
2019-05-07T09:35:04.941Z,2.73
2019-05-07T09:37:34.211Z,2.20
2019-05-07T09:40:03.045Z,2.03
2019-05-07T09:42:33.199Z,2.53
2019-05-07T09:45:02.021Z,2.70
2019-05-07T09:47:32.424Z,2.50
2019-05-07T09:50:06.992Z,2.50
2019-05-07T09:52:32.245Z,2.50
2019-05-07T09:55:02.611Z,2.53
2019-05-07T09:57:32.453Z,2.27
2019-05-07T10:00:02.410Z,2.47
2019-05-07T10:02:32.548Z,2.30
2019-05-07T10:05:02.453Z,2.53
2019-05-07T10:07:32.634Z,2.40
2019-05-07T10:10:03.134Z,2.03
2019-05-07T10:12:39.381Z,2.20
2019-05-07T10:15:08.485Z,2.07
2019-05-07T10:17:50.686Z,2.20
2019-05-07T10:20:22.549Z,1.97
2019-05-07T10:22:51.956Z,2.00
2019-05-07T10:25:22.259Z,2.07
2019-05-07T10:27:50.120Z,2.00
2019-05-07T10:30:18.355Z,2.03
2019-05-07T10:32:49.386Z,2.03
2019-05-07T10:35:17.484Z,1.67
2019-05-07T10:37:45.858Z,2.10
2019-05-07T10:40:14.642Z,1.93
2019-05-07T10:42:43.127Z,2.03
2019-05-07T10:45:32.278Z,1.70
2019-05-07T10:48:14.672Z,1.70
2019-05-07T10:50:44.805Z,1.73
2019-05-07T10:53:13.062Z,1.87
2019-05-07T10:55:41.985Z,1.90
2019-05-07T10:58:11.109Z,1.80
2019-05-07T11:00:39.653Z,1.93
2019-05-07T11:03:09.597Z,1.87
2019-05-07T11:05:37.995Z,2.00
2019-05-07T11:08:06.054Z,2.10
2019-05-07T11:10:34.152Z,2.07
2019-05-07T11:13:02.548Z,1.90
2019-05-07T11:15:32.623Z,2.10
2019-05-07T11:18:19.111Z,2.00
2019-05-07T11:21:03.060Z,2.07
2019-05-07T11:23:32.711Z,2.30
2019-05-07T11:26:02.703Z,2.33
2019-05-07T11:28:32.418Z,1.90
2019-05-07T11:31:02.038Z,2.10
2019-05-07T11:33:32.338Z,2.10
2019-05-07T11:36:02.263Z,2.10
2019-05-07T11:38:33.149Z,2.30
2019-05-07T11:41:02.374Z,2.10
2019-05-07T11:44:05.437Z,1.90
2019-05-07T11:46:55.746Z,1.90
2019-05-07T11:49:46.478Z,1.80
2019-05-07T11:52:16.664Z,1.97
2019-05-07T11:54:46.241Z,2.10
2019-05-07T11:57:14.183Z,2.10
2019-05-07T11:59:42.536Z,1.97
2019-05-07T12:02:12.111Z,1.87
2019-05-07T12:04:42.135Z,1.90
2019-05-07T12:07:11.906Z,2.10
2019-05-07T12:09:40.488Z,2.20
2019-05-07T12:12:10.353Z,1.93
2019-05-07T12:14:38.683Z,1.90
2019-05-07T12:17:06.720Z,1.80
2019-05-07T12:19:35.357Z,2.17
2019-05-07T12:22:05.542Z,2.23
2019-05-07T12:24:33.572Z,2.20
2019-05-07T12:27:02.658Z,2.20
2019-05-07T12:29:32.299Z,1.80
2019-05-07T12:32:19.375Z,2.10
2019-05-07T12:34:50.292Z,2.10
2019-05-07T12:37:18.334Z,2.00
2019-05-07T12:39:46.324Z,2.20
2019-05-07T12:42:14.645Z,2.27
2019-05-07T12:44:43.066Z,2.40
2019-05-07T12:47:12.089Z,2.10
2019-05-07T12:49:40.209Z,2.00
2019-05-07T12:52:19.687Z,2.50
2019-05-07T12:55:11.912Z,2.13
2019-05-07T12:57:41.969Z,2.13
2019-05-07T13:00:29.042Z,2.10
2019-05-07T13:03:14.419Z,2.17
2019-05-07T13:05:43.404Z,2.00
2019-05-07T13:08:12.342Z,2.40
2019-05-07T13:10:42.713Z,2.20
2019-05-07T13:13:12.182Z,2.30
2019-05-07T13:15:43.155Z,2.30
2019-05-07T13:18:12.568Z,2.53
2019-05-07T13:20:40.353Z,2.67
2019-05-07T13:23:08.510Z,2.20
2019-05-07T13:25:36.531Z,2.10
2019-05-07T13:28:04.857Z,1.93
2019-05-07T13:30:55.913Z,2.13
2019-05-07T13:33:25.590Z,2.07
2019-05-07T13:35:53.624Z,2.33
2019-05-07T13:38:57.219Z,2.00
2019-05-07T13:41:43.722Z,2.40
2019-05-07T13:44:43.873Z,2.27
2019-05-07T13:47:26.642Z,1.93
2019-05-07T13:49:55.718Z,1.87
2019-05-07T13:52:23.970Z,1.93
2019-05-07T13:54:53.289Z,2.13
2019-05-07T13:57:22.706Z,2.20
2019-05-07T13:59:53.061Z,2.23
2019-05-07T14:02:24.087Z,2.40
2019-05-07T14:04:52.779Z,2.10
2019-05-07T14:07:21.807Z,2.17
2019-05-07T14:09:52.505Z,2.40
2019-05-07T14:12:20.278Z,2.40
2019-05-07T14:14:49.079Z,2.20
2019-05-07T14:17:18.165Z,2.47
2019-05-07T14:19:46.282Z,2.63
2019-05-07T14:22:18.362Z,2.40
2019-05-07T14:24:44.265Z,2.23
2019-05-07T14:27:12.297Z,2.63
2019-05-07T14:29:42.313Z,2.43
2019-05-07T14:32:29.857Z,2.27
2019-05-07T14:35:16.254Z,2.07
2019-05-07T14:37:48.112Z,2.07
2019-05-07T14:40:16.545Z,2.30
2019-05-07T14:42:49.440Z,2.30
2019-05-07T14:45:17.887Z,1.93
2019-05-07T14:47:45.869Z,2.70
2019-05-07T14:50:14.949Z,2.47
2019-05-07T14:52:43.399Z,2.30
2019-05-07T14:55:12.842Z,2.30
2019-05-07T14:57:42.094Z,2.07
2019-05-07T15:00:12.284Z,2.20
2019-05-07T15:02:42.154Z,2.33
2019-05-07T15:05:12.014Z,2.37
2019-05-07T15:07:40.328Z,2.43
2019-05-07T15:10:08.672Z,2.20
2019-05-07T15:12:38.368Z,2.40
2019-05-07T15:15:09.202Z,2.17
2019-05-07T15:17:44.167Z,2.07
2019-05-07T15:20:14.721Z,2.10
2019-05-07T15:22:52.758Z,2.10
2019-05-07T15:25:22.651Z,2.17
2019-05-07T15:27:52.697Z,2.40
2019-05-07T15:30:21.942Z,2.30
2019-05-07T15:32:52.153Z,2.30
2019-05-07T15:35:22.673Z,2.20
2019-05-07T15:37:51.801Z,2.10
2019-05-07T15:40:22.564Z,2.10
2019-05-07T15:42:52.508Z,2.23
2019-05-07T15:45:21.720Z,1.90
2019-05-07T15:47:52.023Z,1.97
2019-05-07T15:50:23.850Z,2.17
2019-05-07T15:53:13.901Z,1.97
2019-05-07T15:55:42.046Z,2.17
2019-05-07T15:58:12.052Z,2.13
2019-05-07T16:00:42.421Z,1.80
2019-05-07T16:03:18.646Z,2.07
2019-05-07T16:05:46.805Z,3.63
2019-05-07T16:08:16.657Z,2.63
2019-05-07T16:10:45.720Z,2.30
2019-05-07T16:13:17.459Z,2.43
2019-05-07T16:15:45.554Z,2.00
2019-05-07T16:18:17.207Z,2.10
2019-05-07T16:20:45.316Z,2.30
2019-05-07T16:23:17.302Z,1.83
2019-05-07T16:25:43.674Z,1.90
2019-05-07T16:28:12.815Z,1.77
2019-05-07T16:30:42.652Z,1.80
2019-05-07T16:33:12.778Z,2.20
2019-05-07T16:35:42.517Z,2.10
2019-05-07T16:38:14.567Z,1.97
2019-05-07T16:40:42.685Z,2.07
2019-05-07T16:43:11.978Z,2.13
2019-05-07T16:45:42.449Z,1.90
2019-05-07T16:48:11.953Z,2.03
2019-05-07T16:50:40.698Z,1.97
2019-05-07T16:53:08.807Z,2.13
2019-05-07T16:55:37.219Z,2.33
2019-05-07T16:58:12.655Z,2.20
2019-05-07T17:00:44.059Z,2.10
2019-05-07T17:03:16.833Z,2.07
2019-05-07T17:05:44.858Z,2.17
2019-05-07T17:08:44.531Z,2.10
2019-05-07T17:11:12.534Z,2.03
2019-05-07T17:13:42.445Z,2.13
2019-05-07T17:16:12.217Z,2.10
2019-05-07T17:18:40.441Z,2.00
2019-05-07T17:21:08.430Z,1.90
2019-05-07T17:23:44.108Z,1.90
2019-05-07T17:26:07.384Z,2.10
2019-05-07T17:28:35.834Z,1.97
2019-05-07T17:31:06.018Z,2.00
2019-05-07T17:33:34.352Z,2.10
2019-05-07T17:36:02.665Z,2.10
2019-05-07T17:38:32.204Z,1.77
2019-05-07T17:41:10.925Z,1.80
2019-05-07T17:43:32.476Z,1.90
2019-05-07T17:46:02.802Z,2.20
2019-05-07T17:48:33.099Z,1.97
2019-05-07T17:51:24.002Z,2.17
2019-05-07T17:53:59.373Z,2.13
2019-05-07T17:56:25.650Z,1.70
2019-05-07T17:58:53.733Z,2.00
2019-05-07T18:01:28.918Z,1.77
2019-05-07T18:03:57.007Z,2.00
2019-05-07T18:06:25.481Z,1.70
2019-05-07T18:09:03.647Z,1.70
2019-05-07T18:11:33.535Z,1.80
2019-05-07T18:14:02.609Z,2.00
2019-05-07T18:17:06.517Z,2.17
2019-05-07T18:19:34.611Z,2.00
2019-05-07T18:22:02.797Z,1.90
2019-05-07T18:24:32.985Z,1.90
2019-05-07T18:27:22.338Z,1.87
2019-05-07T18:29:52.245Z,1.70
2019-05-07T18:32:21.942Z,1.50
2019-05-07T18:34:51.977Z,1.90
2019-05-07T18:37:20.144Z,1.87
2019-05-07T18:39:52.004Z,1.80
2019-05-07T18:42:22.200Z,1.70
2019-05-07T18:44:52.411Z,2.30
2019-05-07T18:47:22.339Z,2.07
2019-05-07T18:50:06.419Z,2.07
2019-05-07T18:52:34.632Z,1.80
2019-05-07T18:55:02.901Z,1.70
2019-05-07T18:57:32.834Z,1.60
2019-05-07T19:00:05.029Z,1.57
2019-05-07T19:02:32.661Z,1.80
2019-05-07T19:05:02.737Z,1.77
2019-05-07T19:07:32.477Z,1.60
2019-05-07T19:10:02.652Z,1.80
2019-05-07T19:12:33.456Z,1.70
2019-05-07T19:15:02.910Z,1.80
2019-05-07T19:17:48.909Z,1.60
2019-05-07T19:20:17.437Z,1.47
2019-05-07T19:22:45.541Z,1.60
2019-05-07T19:25:13.693Z,1.60
2019-05-07T19:27:41.958Z,1.60
2019-05-07T19:30:12.554Z,1.40
2019-05-07T19:32:42.746Z,1.60
2019-05-07T19:35:12.347Z,1.70
2019-05-07T19:37:42.440Z,1.60
2019-05-07T19:40:21.900Z,2.03
2019-05-07T19:42:52.135Z,1.50
2019-05-07T19:45:27.320Z,1.90
2019-05-07T19:47:55.891Z,1.90
2019-05-07T19:50:26.044Z,1.50
2019-05-07T19:52:54.160Z,1.43
2019-05-07T19:55:22.487Z,1.57
2019-05-07T19:57:58.113Z,1.63
2019-05-07T20:00:26.376Z,1.40
2019-05-07T20:02:57.090Z,1.40
2019-05-07T20:05:25.113Z,1.70
2019-05-07T20:07:55.568Z,1.70
2019-05-07T20:10:38.070Z,1.67
2019-05-07T20:13:06.075Z,1.57
2019-05-07T20:15:35.109Z,1.70
2019-05-07T20:18:03.221Z,1.60
2019-05-07T20:20:33.179Z,1.87
2019-05-07T20:23:02.581Z,1.80
2019-05-07T20:25:33.264Z,1.60
2019-05-07T20:28:02.149Z,1.60
2019-05-07T20:30:32.283Z,1.43
2019-05-07T20:33:02.940Z,1.90
2019-05-07T20:35:32.480Z,1.70
2019-05-07T20:38:02.850Z,1.57
2019-05-07T20:40:32.041Z,1.50
2019-05-07T20:43:01.967Z,1.60
2019-05-07T20:45:32.039Z,1.80
2019-05-07T20:48:02.385Z,1.40
2019-05-07T20:50:30.231Z,1.70
2019-05-07T20:52:58.265Z,1.73
2019-05-07T20:55:49.614Z,1.60
2019-05-07T20:58:17.666Z,1.70
2019-05-07T21:00:46.229Z,1.40
2019-05-07T21:03:20.157Z,1.43
2019-05-07T21:05:52.959Z,1.47
2019-05-07T21:08:22.709Z,1.67
2019-05-07T21:10:53.226Z,1.60
2019-05-07T21:13:30.965Z,1.60
2019-05-07T21:15:52.700Z,1.60
2019-05-07T21:18:23.371Z,1.60
2019-05-07T21:20:52.841Z,1.57
2019-05-07T21:23:22.814Z,1.40
2019-05-07T21:25:52.816Z,1.60
2019-05-07T21:28:21.406Z,1.40
2019-05-07T21:30:51.941Z,1.40
2019-05-07T21:33:19.470Z,1.50
2019-05-07T21:35:47.521Z,1.50
2019-05-07T21:38:15.545Z,1.40
2019-05-07T21:40:43.809Z,1.67
2019-05-07T21:43:13.999Z,1.90
2019-05-07T21:45:42.356Z,1.50
2019-05-07T21:48:10.555Z,1.50
2019-05-07T21:50:38.591Z,1.70
2019-05-07T21:53:13.388Z,1.80
2019-05-07T21:56:01.697Z,1.50
2019-05-07T21:58:38.911Z,1.70
2019-05-07T22:01:21.758Z,1.60
2019-05-07T22:03:52.721Z,1.60
2019-05-07T22:06:22.742Z,1.43
2019-05-07T22:08:52.571Z,1.53
2019-05-07T22:11:22.807Z,1.60
2019-05-07T22:13:54.440Z,1.90
2019-05-07T22:16:22.209Z,1.60
2019-05-07T22:18:52.205Z,1.53
2019-05-07T22:21:20.298Z,1.50
2019-05-07T22:23:48.323Z,1.43
2019-05-07T22:26:22.281Z,1.50
2019-05-07T22:28:46.174Z,1.60
2019-05-07T22:31:36.963Z,1.70
2019-05-07T22:34:15.777Z,1.40
2019-05-07T22:36:45.237Z,1.60
2019-05-07T22:39:23.961Z,1.50
2019-05-07T22:41:53.854Z,1.60
2019-05-07T22:44:26.102Z,1.73
2019-05-07T22:46:54.151Z,1.63
2019-05-07T22:49:23.008Z,1.60
2019-05-07T22:51:52.607Z,1.73
2019-05-07T22:54:22.615Z,1.70
2019-05-07T22:57:08.800Z,1.50
2019-05-07T22:59:36.821Z,1.50
2019-05-07T23:02:05.008Z,1.53
2019-05-07T23:04:33.061Z,1.97
2019-05-07T23:07:02.189Z,1.70
2019-05-07T23:09:30.477Z,1.60
2019-05-07T23:11:58.513Z,1.27
2019-05-07T23:14:26.536Z,1.60
2019-05-07T23:16:55.354Z,1.40
2019-05-07T23:19:24.666Z,1.60
2019-05-07T23:21:52.702Z,1.30
2019-05-07T23:24:22.547Z,1.67
2019-05-07T23:26:53.354Z,1.40
2019-05-07T23:29:33.736Z,1.43
2019-05-07T23:32:02.319Z,1.60
2019-05-07T23:34:32.616Z,1.57
2019-05-07T23:37:02.504Z,1.30
2019-05-07T23:39:32.662Z,1.57
2019-05-07T23:42:25.890Z,1.40
2019-05-07T23:44:53.895Z,1.67
2019-05-07T23:47:22.736Z,1.40
2019-05-07T23:49:52.375Z,1.40
2019-05-07T23:52:22.559Z,1.67
2019-05-07T23:54:52.168Z,1.43
2019-05-07T23:57:22.676Z,1.30
2019-05-07T23:59:50.394Z,1.43
